createdAt,value
2019-02-09T00:01:57.944Z,82.81
2019-02-09T00:04:26.741Z,82.76
2019-02-09T00:06:55.523Z,83.52
2019-02-09T00:09:25.586Z,83.24
2019-02-09T00:11:54.471Z,83.72
2019-02-09T00:14:23.360Z,83.68
2019-02-09T00:16:52.324Z,83.64
2019-02-09T00:19:21.169Z,83.74
2019-02-09T00:21:49.978Z,83.79
2019-02-09T00:24:18.912Z,83.10
2019-02-09T00:26:47.773Z,82.34
2019-02-09T00:29:16.553Z,83.21
2019-02-09T00:31:45.418Z,82.69
2019-02-09T00:34:14.208Z,82.39
2019-02-09T00:36:43.085Z,82.63
2019-02-09T00:39:12.018Z,81.44
2019-02-09T00:41:40.873Z,81.09
2019-02-09T00:44:09.757Z,80.81
2019-02-09T00:46:38.539Z,80.17
2019-02-09T00:49:07.483Z,80.43
2019-02-09T00:51:36.279Z,80.02
2019-02-09T00:54:05.402Z,79.72
2019-02-09T00:56:34.185Z,79.92
2019-02-09T00:59:03.066Z,79.50
2019-02-09T01:01:32.033Z,80.24
2019-02-09T01:04:00.915Z,80.42
2019-02-09T01:06:29.701Z,80.88
2019-02-09T01:08:58.658Z,80.76
2019-02-09T01:11:27.437Z,80.46
2019-02-09T01:13:56.556Z,80.77
2019-02-09T01:16:25.503Z,80.85
2019-02-09T01:18:54.285Z,80.81
2019-02-09T01:21:23.141Z,80.69
2019-02-09T01:23:51.914Z,80.27
2019-02-09T01:26:20.715Z,80.26
2019-02-09T01:28:49.479Z,79.98
2019-02-09T01:31:18.282Z,79.69
2019-02-09T01:33:47.060Z,78.88
2019-02-09T01:36:16.029Z,78.94
2019-02-09T01:38:44.903Z,77.94
2019-02-09T01:41:13.787Z,78.20
2019-02-09T01:43:42.571Z,77.28
2019-02-09T01:46:11.508Z,77.55
2019-02-09T01:48:40.278Z,76.46
2019-02-09T01:51:09.138Z,75.52
2019-02-09T01:53:37.993Z,74.55
2019-02-09T01:56:06.922Z,74.04
2019-02-09T01:58:35.710Z,74.20
2019-02-09T02:01:05.348Z,72.90
2019-02-09T02:03:34.212Z,73.13
2019-02-09T02:06:03.291Z,72.37
2019-02-09T02:08:32.126Z,72.25
2019-02-09T02:11:01.072Z,73.07
2019-02-09T02:13:29.992Z,72.15
2019-02-09T02:15:58.942Z,73.03
2019-02-09T02:18:28.709Z,72.67
2019-02-09T02:20:57.668Z,72.85
2019-02-09T02:23:26.461Z,73.11
2019-02-09T02:25:55.251Z,72.64
2019-02-09T02:28:24.109Z,71.92
2019-02-09T02:30:53.042Z,71.19
2019-02-09T02:33:21.897Z,71.27
2019-02-09T02:35:50.792Z,70.58
2019-02-09T02:38:19.648Z,69.37
2019-02-09T02:40:48.490Z,69.73
2019-02-09T02:43:17.291Z,68.89
2019-02-09T02:45:46.152Z,69.44
2019-02-09T02:48:15.034Z,69.84
2019-02-09T02:50:43.952Z,69.50
2019-02-09T02:53:12.823Z,69.21
2019-02-09T02:55:41.665Z,68.81
2019-02-09T02:58:10.550Z,70.25
2019-02-09T03:00:39.586Z,70.78
2019-02-09T03:03:08.432Z,70.86
2019-02-09T03:05:37.231Z,70.28
2019-02-09T03:08:06.614Z,71.42
2019-02-09T03:10:35.487Z,71.22
2019-02-09T03:13:04.509Z,72.16
2019-02-09T03:15:33.554Z,72.42
2019-02-09T03:18:02.567Z,73.91
2019-02-09T03:20:31.477Z,74.99
2019-02-09T03:23:00.971Z,75.99
2019-02-09T03:25:31.431Z,77.27
2019-02-09T03:28:01.233Z,77.50
2019-02-09T03:30:31.123Z,79.71
2019-02-09T03:32:59.994Z,79.27
2019-02-09T03:35:28.955Z,79.80
2019-02-09T03:37:57.780Z,82.03
2019-02-09T03:40:26.845Z,83.21
2019-02-09T03:42:55.805Z,84.17
2019-02-09T03:45:31.546Z,85.49
2019-02-09T03:48:00.426Z,86.63
2019-02-09T03:50:30.575Z,88.06
2019-02-09T03:52:59.622Z,88.55
2019-02-09T03:55:28.534Z,90.58
2019-02-09T03:57:57.405Z,91.57
2019-02-09T04:00:27.950Z,91.95
2019-02-09T04:02:57.165Z,93.49
2019-02-09T04:05:26.244Z,93.43
2019-02-09T04:07:55.186Z,93.53
2019-02-09T04:10:24.976Z,94.22
2019-02-09T04:12:53.996Z,95.30
2019-02-09T04:15:24.175Z,95.15
2019-02-09T04:17:53.384Z,95.00
2019-02-09T04:20:22.666Z,95.11
2019-02-09T04:22:52.009Z,94.49
2019-02-09T04:25:21.214Z,94.80
2019-02-09T04:27:50.238Z,93.83
2019-02-09T04:30:23.903Z,94.75
2019-02-09T04:32:53.283Z,96.23
2019-02-09T04:35:22.375Z,96.02
2019-02-09T04:37:51.372Z,95.95
2019-02-09T04:40:22.295Z,96.04
2019-02-09T04:42:51.225Z,96.47
2019-02-09T04:45:20.379Z,96.12
2019-02-09T04:47:49.274Z,97.11
2019-02-09T04:50:18.841Z,96.64
2019-02-09T04:52:47.889Z,96.79
2019-02-09T04:55:19.185Z,96.65
2019-02-09T04:57:48.097Z,97.29
2019-02-09T05:00:22.310Z,97.00
2019-02-09T05:02:51.647Z,97.55
2019-02-09T05:05:20.660Z,96.75
2019-02-09T05:07:49.702Z,96.70
2019-02-09T05:10:19.436Z,96.43
2019-02-09T05:12:48.278Z,96.40
2019-02-09T05:15:18.146Z,96.78
2019-02-09T05:17:47.120Z,96.69
2019-02-09T05:20:18.126Z,97.25
2019-02-09T05:22:47.187Z,97.33
2019-02-09T05:25:16.462Z,97.12
2019-02-09T05:27:45.353Z,96.43
2019-02-09T05:30:19.261Z,96.71
2019-02-09T05:32:48.426Z,97.25
2019-02-09T05:35:17.472Z,97.38
2019-02-09T05:37:46.524Z,97.67
2019-02-09T05:40:17.637Z,98.57
2019-02-09T05:42:46.686Z,98.78
2019-02-09T05:45:23.255Z,99.24
2019-02-09T05:47:52.263Z,99.26
2019-02-09T05:50:21.537Z,99.01
2019-02-09T05:52:50.447Z,98.68
2019-02-09T05:55:19.718Z,98.70
2019-02-09T05:57:48.626Z,98.95
2019-02-09T06:00:27.549Z,99.00
2019-02-09T06:02:56.433Z,98.69
2019-02-09T06:05:25.401Z,96.74
2019-02-09T06:07:54.328Z,96.08
2019-02-09T06:10:23.179Z,92.74
2019-02-09T06:12:52.140Z,91.09
2019-02-09T06:15:21.200Z,90.66
2019-02-09T06:17:50.209Z,88.91
2019-02-09T06:20:21.947Z,87.65
2019-02-09T06:22:50.960Z,87.86
2019-02-09T06:25:19.994Z,86.71
2019-02-09T06:27:48.957Z,88.01
2019-02-09T06:30:22.680Z,88.88
2019-02-09T06:32:51.682Z,89.06
2019-02-09T06:35:20.670Z,89.18
2019-02-09T06:37:49.517Z,90.32
2019-02-09T06:40:18.582Z,91.22
2019-02-09T06:42:47.505Z,91.74
2019-02-09T06:45:18.505Z,92.76
2019-02-09T06:47:47.440Z,93.36
2019-02-09T06:50:25.460Z,93.72
2019-02-09T06:52:54.445Z,93.99
2019-02-09T06:55:23.302Z,95.09
2019-02-09T06:57:52.236Z,95.78
2019-02-09T07:00:21.390Z,94.74
2019-02-09T07:02:50.236Z,95.47
2019-02-09T07:05:19.706Z,96.10
2019-02-09T07:07:49.040Z,96.94
2019-02-09T07:10:20.234Z,97.57
2019-02-09T07:12:49.084Z,98.53
2019-02-09T07:15:23.990Z,98.33
2019-02-09T07:17:52.945Z,97.65
2019-02-09T07:20:22.075Z,96.76
2019-02-09T07:22:51.113Z,96.76
2019-02-09T07:25:20.033Z,96.57
2019-02-09T07:27:49.173Z,94.38
2019-02-09T07:30:20.809Z,93.78
2019-02-09T07:32:49.987Z,90.60
2019-02-09T07:35:18.920Z,88.88
2019-02-09T07:37:47.853Z,88.48
2019-02-09T07:40:17.504Z,88.01
2019-02-09T07:42:46.389Z,84.04
2019-02-09T07:45:17.357Z,81.46
2019-02-09T07:47:46.176Z,81.22
2019-02-09T07:50:16.904Z,80.91
2019-02-09T07:52:45.988Z,78.96
2019-02-09T07:55:15.508Z,78.37
2019-02-09T07:57:44.396Z,78.37
2019-02-09T08:00:19.273Z,77.31
2019-02-09T08:02:48.084Z,76.87
2019-02-09T08:05:17.234Z,76.32
2019-02-09T08:07:46.214Z,76.49
2019-02-09T08:10:18.050Z,75.31
2019-02-09T08:12:47.204Z,74.38
2019-02-09T08:15:18.858Z,74.72
2019-02-09T08:17:47.813Z,75.53
2019-02-09T08:20:17.371Z,74.38
2019-02-09T08:22:46.516Z,74.73
2019-02-09T08:25:17.841Z,74.46
2019-02-09T08:27:46.922Z,72.29
2019-02-09T08:30:19.267Z,72.57
2019-02-09T08:32:48.269Z,72.62
2019-02-09T08:35:17.189Z,73.19
2019-02-09T08:37:46.186Z,73.68
2019-02-09T08:40:15.408Z,71.85
2019-02-09T08:42:44.320Z,71.72
2019-02-09T08:45:16.485Z,71.79
2019-02-09T08:47:45.731Z,72.05
2019-02-09T08:50:20.959Z,72.12
2019-02-09T08:52:49.896Z,71.87
2019-02-09T08:55:18.929Z,71.40
2019-02-09T08:57:47.856Z,72.68
2019-02-09T09:00:19.662Z,72.79
2019-02-09T09:02:48.606Z,72.45
2019-02-09T09:05:17.547Z,71.73
2019-02-09T09:07:46.699Z,71.82
2019-02-09T09:10:16.203Z,71.76
2019-02-09T09:12:45.260Z,72.76
2019-02-09T09:15:17.086Z,72.77
2019-02-09T09:17:45.872Z,72.79
2019-02-09T09:20:21.199Z,72.32
2019-02-09T09:22:50.147Z,72.77
2019-02-09T09:25:19.382Z,73.72
2019-02-09T09:27:48.418Z,72.61
2019-02-09T09:30:19.617Z,72.68
2019-02-09T09:32:48.554Z,71.41
2019-02-09T09:35:17.403Z,71.41
2019-02-09T09:37:46.269Z,71.30
2019-02-09T09:40:19.213Z,70.26
2019-02-09T09:42:48.362Z,71.76
2019-02-09T09:45:20.829Z,70.88
2019-02-09T09:47:50.072Z,70.27
2019-02-09T09:50:20.344Z,68.19
2019-02-09T09:52:49.289Z,69.02
2019-02-09T09:55:18.629Z,69.08
2019-02-09T09:57:47.484Z,69.19
2019-02-09T10:00:17.399Z,69.46
2019-02-09T10:02:46.703Z,69.10
2019-02-09T10:05:15.963Z,68.96
2019-02-09T10:07:45.015Z,67.86
2019-02-09T10:10:16.198Z,68.61
2019-02-09T10:12:45.049Z,69.37
2019-02-09T10:15:16.662Z,69.74
2019-02-09T10:17:45.553Z,69.62
2019-02-09T10:20:16.831Z,68.72
2019-02-09T10:22:45.690Z,67.98
2019-02-09T10:25:15.127Z,65.81
2019-02-09T10:27:44.487Z,66.13
2019-02-09T10:30:16.041Z,66.58
2019-02-09T10:32:44.893Z,65.77
2019-02-09T10:35:14.608Z,64.78
2019-02-09T10:37:43.683Z,64.12
2019-02-09T10:40:15.628Z,63.39
2019-02-09T10:42:45.555Z,63.28
2019-02-09T10:45:17.750Z,64.06
2019-02-09T10:47:46.683Z,62.11
2019-02-09T10:50:21.360Z,62.53
2019-02-09T10:52:50.126Z,63.44
2019-02-09T10:55:19.077Z,61.36
2019-02-09T10:57:48.878Z,62.01
2019-02-09T11:00:25.172Z,62.32
2019-02-09T11:02:55.847Z,61.39
2019-02-09T11:05:25.620Z,60.21
2019-02-09T11:07:54.547Z,60.64
2019-02-09T11:10:23.972Z,59.71
2019-02-09T11:12:52.914Z,60.42
2019-02-09T11:15:21.969Z,60.11
2019-02-09T11:17:51.402Z,59.27
2019-02-09T11:20:20.468Z,59.24
2019-02-09T11:22:49.414Z,59.78
2019-02-09T11:25:19.102Z,60.78
2019-02-09T11:27:49.141Z,58.99
2019-02-09T11:30:20.803Z,59.11
2019-02-09T11:32:49.863Z,58.88
2019-02-09T11:35:20.063Z,59.26
2019-02-09T11:37:49.092Z,60.54
2019-02-09T11:40:19.363Z,60.09
2019-02-09T11:42:48.698Z,59.64
2019-02-09T11:45:23.307Z,59.52
2019-02-09T11:47:52.438Z,60.60
2019-02-09T11:50:21.426Z,60.08
2019-02-09T11:52:50.564Z,59.52
2019-02-09T11:55:20.065Z,59.81
2019-02-09T11:57:50.373Z,59.33
2019-02-09T12:00:22.217Z,60.08
2019-02-09T12:02:51.166Z,59.84
2019-02-09T12:05:20.158Z,59.96
2019-02-09T12:07:50.360Z,60.76
2019-02-09T12:10:20.687Z,59.47
2019-02-09T12:12:50.293Z,59.72
2019-02-09T12:15:22.581Z,58.84
2019-02-09T12:17:52.941Z,59.33
2019-02-09T12:20:22.517Z,58.92
2019-02-09T12:22:51.439Z,58.12
2019-02-09T12:25:23.072Z,59.77
2019-02-09T12:27:51.846Z,59.00
2019-02-09T12:30:25.442Z,58.68
2019-02-09T12:32:54.389Z,59.76
2019-02-09T12:35:23.613Z,59.75
2019-02-09T12:37:52.556Z,59.84
2019-02-09T12:40:29.063Z,60.78
2019-02-09T12:42:57.917Z,66.86
2019-02-09T12:45:27.511Z,69.11
2019-02-09T12:47:56.460Z,69.35
2019-02-09T12:50:26.116Z,69.62
2019-02-09T12:52:55.161Z,71.17
2019-02-09T12:55:24.406Z,69.74
2019-02-09T12:57:53.358Z,68.24
2019-02-09T13:00:32.947Z,68.22
2019-02-09T13:03:04.916Z,68.74
2019-02-09T13:05:33.864Z,67.21
2019-02-09T13:08:02.737Z,66.70
2019-02-09T13:10:31.662Z,66.93
2019-02-09T13:13:00.603Z,66.94
2019-02-09T13:15:30.006Z,65.31
2019-02-09T13:17:58.945Z,65.32
2019-02-09T13:20:28.505Z,65.14
2019-02-09T13:22:58.143Z,64.77
2019-02-09T13:25:27.113Z,64.37
2019-02-09T13:27:56.217Z,63.08
2019-02-09T13:30:30.128Z,62.87
2019-02-09T13:32:59.367Z,63.82
2019-02-09T13:35:28.487Z,62.51
2019-02-09T13:37:57.468Z,62.36
2019-02-09T13:40:26.752Z,61.66
2019-02-09T13:42:55.692Z,61.02
2019-02-09T13:45:27.207Z,60.18
2019-02-09T13:47:56.239Z,60.34
2019-02-09T13:50:25.278Z,60.33
2019-02-09T13:52:54.261Z,61.17
2019-02-09T13:55:23.437Z,60.94
2019-02-09T13:57:53.380Z,61.17
2019-02-09T14:00:23.848Z,59.95
2019-02-09T14:02:54.166Z,60.39
2019-02-09T14:05:23.619Z,60.82
2019-02-09T14:07:52.620Z,59.84
2019-02-09T14:10:21.971Z,57.99
2019-02-09T14:12:50.959Z,58.53
2019-02-09T14:15:24.930Z,58.88
2019-02-09T14:17:54.123Z,58.52
2019-02-09T14:20:23.124Z,58.29
2019-02-09T14:22:51.919Z,58.64
2019-02-09T14:25:21.328Z,58.49
2019-02-09T14:27:52.320Z,59.15
2019-02-09T14:30:23.288Z,58.31
2019-02-09T14:32:52.373Z,58.53
2019-02-09T14:35:22.216Z,58.55
2019-02-09T14:37:51.383Z,58.22
2019-02-09T14:40:25.788Z,57.88
2019-02-09T14:42:54.832Z,58.07
2019-02-09T14:45:29.035Z,58.07
2019-02-09T14:47:58.009Z,58.18
2019-02-09T14:50:26.933Z,59.13
2019-02-09T14:52:56.277Z,59.45
2019-02-09T14:55:27.672Z,61.91
2019-02-09T14:57:56.700Z,69.41
2019-02-09T15:00:31.068Z,71.22
2019-02-09T15:02:59.953Z,72.01
2019-02-09T15:05:29.012Z,72.61
2019-02-09T15:07:57.869Z,73.45
2019-02-09T15:10:26.723Z,72.85
2019-02-09T15:12:55.833Z,73.34
2019-02-09T15:15:33.393Z,71.75
2019-02-09T15:18:02.742Z,71.92
2019-02-09T15:20:34.494Z,71.63
2019-02-09T15:23:03.300Z,72.04
2019-02-09T15:25:32.259Z,71.59
2019-02-09T15:28:01.301Z,70.56
2019-02-09T15:30:30.562Z,70.74
2019-02-09T15:32:59.518Z,69.94
2019-02-09T15:35:28.355Z,70.00
2019-02-09T15:37:57.339Z,66.58
2019-02-09T15:40:26.848Z,66.92
2019-02-09T15:42:55.994Z,67.34
2019-02-09T15:45:25.108Z,66.94
2019-02-09T15:47:54.163Z,67.15
2019-02-09T15:50:23.224Z,66.19
2019-02-09T15:52:53.123Z,65.75
2019-02-09T15:55:22.286Z,64.11
2019-02-09T15:57:51.423Z,64.65
2019-02-09T16:00:27.516Z,64.47
2019-02-09T16:02:57.699Z,65.65
2019-02-09T16:05:27.957Z,65.63
2019-02-09T16:07:58.272Z,65.80
2019-02-09T16:10:27.703Z,66.02
2019-02-09T16:12:56.637Z,65.91
2019-02-09T16:15:26.957Z,67.28
2019-02-09T16:17:55.916Z,67.42
2019-02-09T16:20:25.181Z,66.72
2019-02-09T16:22:54.425Z,67.03
2019-02-09T16:25:23.679Z,67.22
2019-02-09T16:27:52.608Z,68.03
2019-02-09T16:30:23.354Z,68.04
2019-02-09T16:32:52.269Z,68.28
2019-02-09T16:35:22.055Z,69.02
2019-02-09T16:37:51.204Z,69.00
2019-02-09T16:40:22.117Z,68.85
2019-02-09T16:42:51.260Z,68.86
2019-02-09T16:45:22.373Z,68.09
2019-02-09T16:47:51.500Z,66.83
2019-02-09T16:50:20.777Z,66.26
2019-02-09T16:52:49.726Z,67.00
2019-02-09T16:55:18.771Z,67.14
2019-02-09T16:57:48.227Z,66.92
2019-02-09T17:00:20.198Z,67.85
2019-02-09T17:02:49.139Z,67.30
2019-02-09T17:05:18.093Z,67.24
2019-02-09T17:07:47.014Z,67.24
2019-02-09T17:10:16.644Z,67.04
2019-02-09T17:12:45.600Z,67.02
2019-02-09T17:15:17.488Z,66.66
2019-02-09T17:17:46.425Z,66.05
2019-02-09T17:20:15.808Z,66.48
2019-02-09T17:22:44.768Z,66.50
2019-02-09T17:25:14.449Z,66.64
2019-02-09T17:27:43.368Z,66.90
2019-02-09T17:30:21.166Z,66.90
2019-02-09T17:32:50.028Z,67.10
2019-02-09T17:35:19.154Z,66.93
2019-02-09T17:37:48.300Z,66.79
2019-02-09T17:40:19.379Z,67.10
2019-02-09T17:42:53.128Z,66.99
2019-02-09T17:45:21.955Z,66.91
2019-02-09T17:47:50.809Z,67.11
2019-02-09T17:50:19.599Z,67.10
2019-02-09T17:52:48.516Z,67.54
2019-02-09T17:55:18.607Z,67.51
2019-02-09T17:57:47.674Z,68.03
2019-02-09T18:00:19.144Z,67.50
2019-02-09T18:02:47.998Z,67.23
2019-02-09T18:05:17.355Z,67.16
2019-02-09T18:07:46.296Z,66.78
2019-02-09T18:10:16.136Z,66.85
2019-02-09T18:12:45.051Z,67.42
2019-02-09T18:15:15.650Z,67.35
2019-02-09T18:17:44.569Z,67.08
2019-02-09T18:20:16.366Z,66.42
2019-02-09T18:22:45.308Z,66.50
2019-02-09T18:25:16.381Z,66.43
2019-02-09T18:27:45.428Z,66.37
2019-02-09T18:30:21.867Z,66.33
2019-02-09T18:32:50.899Z,65.70
2019-02-09T18:35:20.273Z,65.03
2019-02-09T18:37:50.201Z,64.93
2019-02-09T18:40:20.673Z,66.04
2019-02-09T18:42:49.616Z,66.07
2019-02-09T18:45:23.703Z,66.40
2019-02-09T18:47:52.746Z,66.19
2019-02-09T18:50:24.055Z,66.11
2019-02-09T18:52:53.140Z,65.59
2019-02-09T18:55:23.206Z,65.53
2019-02-09T18:57:52.133Z,66.08
2019-02-09T19:00:26.193Z,66.06
2019-02-09T19:02:55.216Z,66.82
2019-02-09T19:05:24.100Z,66.64
2019-02-09T19:07:53.265Z,66.18
2019-02-09T19:10:23.767Z,64.94
2019-02-09T19:12:52.693Z,65.63
2019-02-09T19:15:22.082Z,66.43
2019-02-09T19:17:51.020Z,66.10
2019-02-09T19:20:31.703Z,66.25
2019-02-09T19:23:00.996Z,66.12
2019-02-09T19:25:30.536Z,66.09
2019-02-09T19:27:59.425Z,66.35
2019-02-09T19:30:28.478Z,66.37
2019-02-09T19:32:57.407Z,66.99
2019-02-09T19:35:26.276Z,67.72
2019-02-09T19:37:55.399Z,68.69
2019-02-09T19:40:24.755Z,69.93
2019-02-09T19:42:54.568Z,70.07
2019-02-09T19:45:29.112Z,70.88
2019-02-09T19:47:57.879Z,71.05
2019-02-09T19:50:26.745Z,71.76
2019-02-09T19:52:55.616Z,71.94
2019-02-09T19:55:26.251Z,72.08
2019-02-09T19:57:55.451Z,72.75
2019-02-09T20:00:29.328Z,72.76
2019-02-09T20:02:58.367Z,73.02
2019-02-09T20:05:27.301Z,73.57
2019-02-09T20:07:56.254Z,73.80
2019-02-09T20:10:35.843Z,74.07
2019-02-09T20:13:06.266Z,74.67
2019-02-09T20:15:35.198Z,75.18
2019-02-09T20:18:04.447Z,75.13
2019-02-09T20:20:33.333Z,74.90
2019-02-09T20:23:02.200Z,75.61
2019-02-09T20:25:31.237Z,75.71
2019-02-09T20:28:00.090Z,75.85
2019-02-09T20:30:30.984Z,76.28
2019-02-09T20:33:00.044Z,76.50
2019-02-09T20:35:29.435Z,77.05
2019-02-09T20:37:58.401Z,77.31
2019-02-09T20:40:35.897Z,76.94
2019-02-09T20:43:05.815Z,77.48
2019-02-09T20:45:34.695Z,78.44
2019-02-09T20:48:03.902Z,78.08
2019-02-09T20:50:32.788Z,78.68
2019-02-09T20:53:01.651Z,78.88
2019-02-09T20:55:30.605Z,78.89
2019-02-09T20:57:59.738Z,79.16
2019-02-09T21:00:28.937Z,80.02
2019-02-09T21:02:58.089Z,80.68
2019-02-09T21:05:27.383Z,81.07
2019-02-09T21:07:56.307Z,81.08
2019-02-09T21:10:27.422Z,80.77
2019-02-09T21:12:56.363Z,80.79
2019-02-09T21:15:26.668Z,81.04
2019-02-09T21:17:55.632Z,81.18
2019-02-09T21:20:24.808Z,81.44
2019-02-09T21:22:53.955Z,81.82
2019-02-09T21:25:28.121Z,81.85
2019-02-09T21:27:57.249Z,81.75
2019-02-09T21:30:27.025Z,81.65
2019-02-09T21:32:56.105Z,81.78
2019-02-09T21:35:25.628Z,81.78
2019-02-09T21:37:54.913Z,81.75
2019-02-09T21:40:25.237Z,81.52
2019-02-09T21:42:54.191Z,81.75
2019-02-09T21:45:23.875Z,81.80
2019-02-09T21:47:52.995Z,81.81
2019-02-09T21:50:24.017Z,81.85
2019-02-09T21:52:54.331Z,81.91
2019-02-09T21:55:24.178Z,82.11
2019-02-09T21:57:52.969Z,81.83
2019-02-09T22:02:42.434Z,81.59
2019-02-09T22:05:09.352Z,81.34
2019-02-09T22:07:38.136Z,81.43
2019-02-09T22:10:08.716Z,80.74
2019-02-09T22:12:37.645Z,80.42
2019-02-09T22:15:07.613Z,80.80
2019-02-09T22:17:36.581Z,80.70
2019-02-09T22:20:07.871Z,80.20
2019-02-09T22:22:36.731Z,79.91
2019-02-09T22:25:07.198Z,79.16
2019-02-09T22:27:35.985Z,79.42
2019-02-09T22:30:06.565Z,79.21
2019-02-09T22:32:35.463Z,78.95
2019-02-09T22:35:04.775Z,78.67
2019-02-09T22:37:33.623Z,78.88
2019-02-09T22:40:02.878Z,79.11
2019-02-09T22:42:31.749Z,79.46
2019-02-09T22:45:00.525Z,79.37
2019-02-09T22:47:29.394Z,79.15
2019-02-09T22:49:58.169Z,79.36
2019-02-09T22:52:27.027Z,79.67
2019-02-09T22:54:55.976Z,79.39
2019-02-09T22:57:24.911Z,79.35
2019-02-09T22:59:53.802Z,79.37
2019-02-09T23:02:22.648Z,79.90
2019-02-09T23:05:12.496Z,79.76
2019-02-09T23:07:42.493Z,79.75
2019-02-09T23:10:13.573Z,79.83
2019-02-09T23:12:48.473Z,79.41
2019-02-09T23:15:13.199Z,78.94
2019-02-09T23:17:41.987Z,78.92
2019-02-09T23:20:11.334Z,78.40
2019-02-09T23:22:40.123Z,78.94
2019-02-09T23:25:09.311Z,78.82
2019-02-09T23:27:38.089Z,78.65
2019-02-09T23:30:10.028Z,79.16
2019-02-09T23:32:38.804Z,79.48
2019-02-09T23:35:07.771Z,79.50
2019-02-09T23:40:07.597Z,79.92
2019-02-09T23:42:36.456Z,80.00
2019-02-09T23:45:05.696Z,80.12
2019-02-09T23:47:34.475Z,80.27
2019-02-09T23:50:03.324Z,80.37
2019-02-09T23:52:32.104Z,80.63
2019-02-09T23:55:00.878Z,81.02
2019-02-09T23:57:29.766Z,80.83
2019-02-09T23:59:58.552Z,80.94
